Rixford, Vermont
Current Conditions -  °F | °C
As of 9:55 PM on Sunday 23 Nov 2014 (Local Time) from KFSO Reporting Station
Overcast Overcast  
Wind Chill: 42°   Ceiling: 5500
Heat Index: 45°   Visibility: 10mi
Dew Point: 40°   Wind: 5mph
Humidity: 84%   Direction: 130°SE
Pressure: 29.98"   Gusts: NA
Location:  44.958°N, 72.9958°W
Report Text: KFSO 240255Z AUTO 13004KT 10SM OVC055 07/05 A2998 RMK AO2 T00710045
Loading
Personal Weather Stations






























Interactive Weather Map New forecast layout! Learn more

10-Day Weather Forecast

Advertisements
Track Severe Weather on mobile